Archival Weather

Chicago O'Hare International

Chicago, Illinois (KORD)

Report from: Sunday, March 19, 2023 8:51 AM CDT
Current time: Monday, June 17, 2024 6:25 AM CDT

Current weather – Weather history – Daily summaries
Weather forecast

Temperature-5.0°C (23.0°F)
Wind chill-10.9°C (12.4°F)
Dew point-11.7°C (10.9°F)
Winds 9 kts (4.6 m/s, 10.4 mph) West (280°)
Visibility10 mi. (16.1 km)
Clouds Sky clear
Altimeter30.27 in.Hg (1025 mB)
Relative humidity59 %
Density altitude-2,867 ft. (-874 m)
Sea-level pressure102.6 kPa (1026 mB, 30.30 in.Hg)
Remarks System requires maintenance
Automated weather observing station with precipitation discriminator
Flight conditions Visual Meteorological Conditions
Raw dataKORD 191351Z 28009KT 10SM CLR M05/M12 A3027 RMK AO2 SLP261 T10501117 $
An error has occurred. This application may no longer respond until reloaded. Reload 🗙